Time;durP1;ratioP1;P1;durP2;ratioP2;P2;SDS_P1;SDS_P2;PMS_P1;PMS_P2;Temp;Humidity;BMP_temperature;BMP_pressure;BME280_temperature;BME280_humidity;BME280_pressure;Samples;Min_cycle;Max_cycle;Signal;HPM_P1;HPM_P2
2022/03/20 00:01:07;;;;;;;16.70;7.13;;;;;;;5.58;25.63;102822.00;5377283;32;34444;-69
2022/03/20 00:04:09;;;;;;;15.47;7.33;;;;;;;5.23;26.24;102823.88;5340827;32;34153;-70
2022/03/20 00:07:11;;;;;;;18.83;8.53;;;;;;;6.04;24.91;102817.69;5377954;32;34220;-84
2022/03/20 00:10:14;;;;;;;15.47;8.00;;;;;;;5.32;25.96;102826.69;5365078;32;36343;-70
2022/03/20 00:13:19;;;;;;;15.80;8.30;;;;;;;5.06;26.71;102833.94;5352008;32;33895;-69
2022/03/20 00:16:23;;;;;;;16.47;7.63;;;;;;;5.91;25.50;102821.81;5375324;32;34567;-85
2022/03/20 00:19:26;;;;;;;20.87;8.43;;;;;;;4.68;27.13;102835.63;5348931;32;35439;-84
2022/03/20 00:22:29;;;;;;;17.57;8.50;;;;;;;5.06;26.87;102833.94;5368502;32;44992;-84
2022/03/20 00:25:33;;;;;;;16.73;8.38;;;;;;;4.78;27.14;102847.19;5356535;32;36291;-70
2022/03/20 00:28:36;;;;;;;15.80;8.23;;;;;;;5.00;26.87;102830.31;5372170;32;34968;-70
2022/03/20 00:31:38;;;;;;;16.60;8.37;;;;;;;4.39;27.73;102841.88;5372647;32;34471;-85
2022/03/20 00:34:41;;;;;;;15.47;7.87;;;;;;;4.47;27.78;102850.75;5353128;32;34790;-85
2022/03/20 00:37:43;;;;;;;17.03;8.40;;;;;;;5.78;26.16;102838.06;5381827;32;35510;-70
2022/03/20 00:40:46;;;;;;;16.60;7.87;;;;;;;5.99;25.82;102842.88;5361092;32;33927;-79
2022/03/20 00:43:49;;;;;;;18.48;8.90;;;;;;;5.55;26.38;102845.44;5361070;32;34973;-86
2022/03/20 00:46:51;;;;;;;16.33;8.13;;;;;;;4.59;27.56;102854.53;5340214;32;34936;-85
2022/03/20 00:49:54;;;;;;;15.73;8.10;;;;;;;5.82;26.02;102844.22;5361221;32;34727;-79
2022/03/20 00:52:57;;;;;;;20.17;8.03;;;;;;;5.69;26.13;102843.09;5350686;32;35335;-85
2022/03/20 00:55:59;;;;;;;16.47;7.97;;;;;;;5.36;26.65;102843.28;5353062;32;46189;-69
2022/03/20 00:59:01;;;;;;;16.67;7.27;;;;;;;5.22;26.88;102840.37;5377202;32;34909;-83
2022/03/20 01:02:04;;;;;;;14.80;7.30;;;;;;;4.71;27.66;102840.06;5354903;32;34018;-78
2022/03/20 01:05:08;;;;;;;19.45;7.78;;;;;;;4.60;27.79;102837.19;5371231;32;35607;-77
2022/03/20 01:08:10;;;;;;;14.95;6.90;;;;;;;4.46;28.25;102847.25;5352248;32;34556;-83
2022/03/20 01:11:12;;;;;;;19.77;7.13;;;;;;;4.85;27.46;102836.94;5359939;32;36393;-69
2022/03/20 01:14:15;;;;;;;15.83;7.90;;;;;;;4.35;28.37;102843.50;5363543;32;35572;-84
2022/03/20 01:17:17;;;;;;;16.27;8.10;;;;;;;4.57;28.51;102842.31;5336797;32;34482;-71
2022/03/20 01:20:20;;;;;;;18.67;7.90;;;;;;;4.22;29.08;102837.09;5382191;32;34510;-84
2022/03/20 01:23:22;;;;;;;18.40;8.33;;;;;;;4.30;29.20;102837.28;5354578;32;33590;-71
2022/03/20 01:26:24;;;;;;;17.73;8.13;;;;;;;4.06;29.29;102841.03;5383337;32;35200;-70
2022/03/20 01:29:27;;;;;;;19.93;9.00;;;;;;;4.74;28.51;102846.22;5367306;32;33289;-70
2022/03/20 01:32:30;;;;;;;17.03;8.07;;;;;;;4.01;29.51;102852.16;5355464;32;44637;-70
2022/03/20 01:35:32;;;;;;;17.20;7.70;;;;;;;3.76;30.03;102858.41;5351437;32;35529;-77
2022/03/20 01:38:35;;;;;;;16.87;7.90;;;;;;;4.15;29.55;102861.19;5347694;32;36670;-71
2022/03/20 01:41:38;;;;;;;17.03;8.00;;;;;;;4.23;29.20;102853.59;5377058;32;35361;-77
2022/03/20 01:44:40;;;;;;;17.75;8.75;;;;;;;4.12;29.83;102868.91;5340540;32;35271;-70
2022/03/20 01:47:49;;;;;;;16.73;8.20;;;;;;;3.85;30.11;102873.38;5355206;32;35495;-85
2022/03/20 01:50:53;;;;;;;14.52;7.43;;;;;;;3.75;30.25;102877.44;5367011;32;37212;-70
2022/03/20 01:53:55;;;;;;;17.25;7.28;;;;;;;4.01;29.33;102880.78;5356407;32;35903;-85
2022/03/20 01:56:58;;;;;;;17.70;8.27;;;;;;;4.08;29.35;102883.59;5354402;32;43308;-85
2022/03/20 02:00:00;;;;;;;14.67;6.73;;;;;;;3.21;30.92;102896.63;5361771;32;35523;-69
2022/03/20 02:03:02;;;;;;;14.00;6.83;;;;;;;3.19;30.89;102885.31;5379542;32;34734;-69
2022/03/20 02:06:06;;;;;;;18.33;7.33;;;;;;;4.04;29.88;102888.66;5368209;32;35395;-84
2022/03/20 02:09:09;;;;;;;15.07;6.82;;;;;;;3.93;30.13;102887.47;5348425;32;34926;-69
2022/03/20 02:12:12;;;;;;;16.45;7.72;;;;;;;3.65;30.53;102880.59;5369246;32;35844;-85
2022/03/20 02:15:14;;;;;;;16.00;7.60;;;;;;;4.03;29.89;102889.50;5350612;32;34560;-84
2022/03/20 02:18:18;;;;;;;14.80;7.00;;;;;;;3.38;30.95;102886.75;5373482;32;35405;-70
2022/03/20 02:21:40;;;;;;;13.13;6.12;;;;;;;3.15;31.46;102883.44;5352897;32;34754;-70
2022/03/20 02:24:46;;;;;;;14.03;6.67;;;;;;;2.88;32.14;102883.44;5368388;32;34424;-83
2022/03/20 02:27:48;;;;;;;17.03;7.40;;;;;;;2.80;32.50;102891.84;5356153;32;34428;-84
2022/03/20 02:30:50;;;;;;;16.73;7.67;;;;;;;3.41;31.56;102881.63;5356384;32;34002;-70
2022/03/20 02:33:52;;;;;;;14.50;7.37;;;;;;;4.19;30.33;102881.28;5375870;32;36715;-85
2022/03/20 02:36:55;;;;;;;13.90;7.20;;;;;;;3.64;31.31;102890.13;5354196;32;34935;-85
2022/03/20 02:40:00;;;;;;;14.57;7.30;;;;;;;2.96;32.51;102894.09;5368322;32;43787;-70
2022/03/20 02:43:05;;;;;;;14.70;7.00;;;;;;;3.89;31.11;102890.84;5339194;32;35172;-84
2022/03/20 02:46:08;;;;;;;17.07;7.73;;;;;;;2.50;33.29;102894.28;5370001;32;35993;-70
2022/03/20 02:49:15;;;;;;;16.37;7.40;;;;;;;2.90;32.92;102899.12;5354418;32;34986;-78
2022/03/20 02:52:18;;;;;;;17.10;7.80;;;;;;;2.80;33.38;102900.50;5351525;32;34290;-70
2022/03/20 02:55:23;;;;;;;17.47;7.97;;;;;;;3.18;32.59;102898.25;5354552;32;34176;-70
2022/03/20 02:58:27;;;;;;;17.87;7.47;;;;;;;2.56;33.57;102908.34;5361262;32;35100;-70
2022/03/20 03:01:29;;;;;;;16.75;8.35;;;;;;;2.42;34.11;102902.69;5356350;32;44686;-84
2022/03/20 03:04:32;;;;;;;15.07;7.63;;;;;;;2.50;33.82;102913.34;5340861;32;34760;-84
2022/03/20 03:10:55;;;;;;;15.23;7.40;;;;;;;2.61;34.05;102913.72;5363585;32;34528;-78
2022/03/20 03:10:59;;;;;;;16.53;8.00;;;;;;;2.76;33.65;102915.94;5381175;32;44491;-69
2022/03/20 03:15:18;;;;;;;14.48;7.45;;;;;;;3.09;32.85;102918.75;5357601;32;35612;-70
2022/03/20 03:17:30;;;;;;;19.20;8.83;;;;;;;2.99;33.51;102922.78;5377678;32;35780;-69
2022/03/20 03:20:33;;;;;;;16.90;8.03;;;;;;;2.04;35.07;102931.59;5353032;32;44644;-84
2022/03/20 03:23:38;;;;;;;15.63;7.90;;;;;;;2.04;35.28;102935.06;5366234;32;34876;-84
2022/03/20 03:26:40;;;;;;;16.77;7.87;;;;;;;1.99;35.25;102943.50;5360595;32;36602;-70
2022/03/20 03:29:43;;;;;;;15.83;7.77;;;;;;;1.84;35.76;102942.13;5361556;32;34818;-84
2022/03/20 03:32:45;;;;;;;18.50;8.10;;;;;;;1.79;35.83;102947.97;5364678;32;33947;-70
2022/03/20 03:35:57;;;;;;;20.30;8.80;;;;;;;2.10;35.54;102955.19;5342365;32;34325;-83
2022/03/20 03:38:59;;;;;;;16.07;7.83;;;;;;;2.00;35.58;102953.97;5379184;32;44818;-84
2022/03/20 03:42:03;;;;;;;18.73;8.33;;;;;;;2.52;34.99;102953.25;5366855;32;35237;-84
2022/03/20 03:45:06;;;;;;;17.40;8.30;;;;;;;2.17;35.58;102958.03;5317244;32;33390;-84
2022/03/20 03:48:09;;;;;;;17.35;8.20;;;;;;;2.06;35.73;102971.44;5376050;32;34606;-70
2022/03/20 03:51:11;;;;;;;18.77;7.67;;;;;;;2.32;35.50;102969.78;5365039;32;34171;-69
2022/03/20 03:54:14;;;;;;;18.60;9.40;;;;;;;2.34;35.53;102975.94;5375110;32;34894;-86
2022/03/20 03:57:18;;;;;;;26.40;8.50;;;;;;;3.12;34.45;102976.03;5339581;32;32884;-69
2022/03/20 04:00:21;;;;;;;17.93;8.67;;;;;;;3.59;33.35;102979.25;5368150;32;34823;-84
2022/03/20 04:03:23;;;;;;;17.03;8.57;;;;;;;3.86;32.80;102963.59;5357600;32;36043;-85
2022/03/20 04:06:26;;;;;;;16.37;8.80;;;;;;;3.88;32.97;102969.72;5366862;32;35477;-69
2022/03/20 04:09:29;;;;;;;20.57;9.17;;;;;;;3.97;32.85;102967.38;5368600;32;44632;-85
2022/03/20 04:12:33;;;;;;;17.37;9.35;;;;;;;3.31;33.83;102977.50;5347511;32;35675;-69
2022/03/20 04:15:35;;;;;;;27.25;9.70;;;;;;;3.92;33.13;102981.97;5358678;32;34284;-69
2022/03/20 04:18:38;;;;;;;21.63;9.50;;;;;;;4.18;32.42;102974.94;5360019;32;34292;-70
2022/03/20 04:21:40;;;;;;;21.20;9.47;;;;;;;3.21;34.26;102990.19;5379722;32;34079;-77
2022/03/20 04:24:43;;;;;;;20.00;9.37;;;;;;;3.22;34.42;102993.66;5349070;32;34048;-84
2022/03/20 04:27:45;;;;;;;18.10;9.07;;;;;;;3.36;34.44;102987.22;5356243;32;35000;-84
2022/03/20 04:30:52;;;;;;;19.83;9.67;;;;;;;2.90;35.31;102997.81;5359551;32;34983;-83
2022/03/20 04:33:55;;;;;;;16.87;9.20;;;;;;;3.75;33.69;102999.69;5359444;32;37187;-83
2022/03/20 04:36:57;;;;;;;20.20;9.85;;;;;;;3.47;34.40;103008.34;5367925;32;43135;-69
2022/03/20 04:39:59;;;;;;;19.70;9.87;;;;;;;3.95;33.64;103006.37;5362480;32;35187;-70
2022/03/20 04:43:03;;;;;;;15.87;8.93;;;;;;;2.74;35.69;103004.19;5363923;32;33594;-84
2022/03/20 04:46:05;;;;;;;19.60;9.17;;;;;;;3.19;35.15;103009.19;5343894;32;35172;-77
2022/03/20 04:59:09;;;;;;;21.60;9.40;;;;;;;3.79;34.25;103025.84;5343025;32;34661;-79
2022/03/20 05:02:11;;;;;;;19.43;9.87;;;;;;;3.88;33.99;103034.78;5366374;32;34036;-75
2022/03/20 05:05:15;;;;;;;21.87;9.90;;;;;;;4.04;33.80;103034.38;5342898;32;33554;-84
2022/03/20 05:08:17;;;;;;;19.03;9.33;;;;;;;2.92;36.29;103040.31;5378970;32;34916;-69
2022/03/20 05:14:40;;;;;;;27.53;10.00;;;;;;;2.93;36.06;103037.75;5369847;32;34755;-69
2022/03/20 05:17:42;;;;;;;27.73;9.90;;;;;;;3.06;36.34;103044.25;5354465;32;33960;-69
2022/03/20 05:20:45;;;;;;;21.30;10.00;;;;;;;3.75;34.85;103047.41;5368884;32;34641;-84
2022/03/20 05:23:47;;;;;;;27.50;10.13;;;;;;;2.03;38.14;103057.84;5369438;32;34558;-69
2022/03/20 05:26:49;;;;;;;18.80;9.67;;;;;;;2.81;36.97;103039.06;5354250;32;35434;-69
2022/03/20 05:29:52;;;;;;;19.73;10.07;;;;;;;2.79;37.07;103053.72;5368284;32;34492;-70
2022/03/20 05:32:55;;;;;;;18.83;10.02;;;;;;;3.77;35.25;103063.94;5352891;32;35032;-70
2022/03/20 05:35:57;;;;;;;19.03;10.03;;;;;;;3.38;35.67;103057.47;5362531;32;42782;-84
2022/03/20 05:39:01;;;;;;;20.73;10.13;;;;;;;3.12;36.65;103062.66;5372416;32;33676;-70
2022/03/20 05:42:05;;;;;;;20.43;10.13;;;;;;;4.45;34.12;103060.78;5352478;32;36418;-69
2022/03/20 05:45:10;;;;;;;20.60;9.63;;;;;;;4.58;33.54;103065.50;5335887;32;34175;-69
2022/03/20 05:48:12;;;;;;;17.37;9.20;;;;;;;4.88;33.16;103057.63;5354431;32;34718;-77
2022/03/20 05:51:18;;;;;;;19.17;9.17;;;;;;;4.99;32.93;103082.25;5358374;32;32726;-70
2022/03/20 05:54:21;;;;;;;21.10;9.87;;;;;;;6.22;30.55;103081.78;5341193;32;35265;-69
2022/03/20 06:00:44;;;;;;;17.33;9.47;;;;;;;6.65;29.68;103073.97;5371466;32;36418;-83
2022/03/20 06:03:47;;;;;;;21.30;11.10;;;;;;;5.80;30.81;103091.25;5350509;32;35294;-70
2022/03/20 06:06:49;;;;;;;19.80;10.73;;;;;;;4.79;32.86;103104.28;5368535;32;33395;-71
2022/03/20 06:09:51;;;;;;;21.43;10.37;;;;;;;4.82;32.52;103105.22;5352545;32;36255;-85
2022/03/20 06:12:54;;;;;;;21.23;10.40;;;;;;;4.95;32.52;103100.38;5346798;32;34871;-70
2022/03/20 06:15:57;;;;;;;25.40;11.13;;;;;;;5.26;32.52;103107.28;5350510;32;35099;-70
2022/03/20 06:19:00;;;;;;;20.12;9.82;;;;;;;5.10;32.59;103117.31;5345182;32;43274;-70
2022/03/20 06:22:03;;;;;;;21.33;10.73;;;;;;;5.44;32.01;103123.41;5367912;32;35174;-69
2022/03/20 06:25:09;;;;;;;19.62;10.48;;;;;;;5.31;32.23;103122.22;5361987;32;35366;-84
2022/03/20 06:28:11;;;;;;;22.23;10.73;;;;;;;6.54;30.31;103106.84;5365531;32;35227;-70
2022/03/20 06:31:14;;;;;;;16.90;10.00;;;;;;;6.09;30.49;103124.16;5366092;32;34265;-77
2022/03/20 06:34:30;;;;;;;18.13;10.27;;;;;;;7.52;28.39;103128.78;5344456;32;44137;-69
2022/03/20 06:37:37;;;;;;;18.40;9.70;;;;;;;8.19;27.08;103136.84;5351543;32;35579;-69
2022/03/20 06:40:39;;;;;;;17.60;9.40;;;;;;;7.42;27.94;103136.47;5353391;32;34110;-70
2022/03/20 06:43:41;;;;;;;16.77;9.30;;;;;;;7.32;28.33;103136.28;5362304;32;34769;-85
2022/03/20 06:46:44;;;;;;;19.93;10.23;;;;;;;8.52;26.54;103139.06;5351566;32;35560;-70
2022/03/20 06:49:47;;;;;;;18.17;9.50;;;;;;;6.92;28.10;103152.06;5367852;32;33370;-84
2022/03/20 06:52:49;;;;;;;15.57;8.47;;;;;;;7.08;28.11;103148.87;5352781;32;36037;-71
2022/03/20 06:55:52;;;;;;;18.87;10.37;;;;;;;7.49;27.94;103147.06;5352384;32;34332;-85
2022/03/20 06:58:56;;;;;;;16.77;9.50;;;;;;;6.99;28.24;103153.94;5378380;32;33097;-69
2022/03/20 07:01:58;;;;;;;18.00;9.10;;;;;;;7.90;27.23;103149.47;5351624;32;44594;-69
2022/03/20 07:05:01;;;;;;;17.93;9.53;;;;;;;8.59;26.44;103151.38;5381324;32;35170;-84
2022/03/20 07:08:04;;;;;;;15.73;9.43;;;;;;;8.77;26.21;103155.13;5354784;32;34668;-71
2022/03/20 07:11:07;;;;;;;17.15;10.25;;;;;;;6.89;28.32;103160.75;5379030;32;36932;-84
2022/03/20 07:14:09;;;;;;;20.13;10.80;;;;;;;6.34;29.50;103170.00;5349375;32;34853;-79
2022/03/20 07:17:16;;;;;;;18.53;9.53;;;;;;;7.84;27.12;103158.09;5351250;32;34109;-80
2022/03/20 07:20:18;;;;;;;17.93;9.77;;;;;;;7.86;27.73;103166.00;5368079;32;34974;-85
2022/03/20 07:23:22;;;;;;;16.80;9.33;;;;;;;7.34;27.49;103167.69;5347972;32;33948;-70
2022/03/20 07:29:46;;;;;;;17.83;9.47;;;;;;;8.16;26.77;103165.59;5349839;32;34906;-69
2022/03/20 07:32:48;;;;;;;19.63;10.33;;;;;;;8.14;26.93;103170.81;5355158;32;34267;-83
2022/03/20 07:35:51;;;;;;;17.17;9.87;;;;;;;7.79;27.01;103165.03;5368071;32;35249;-86
2022/03/20 07:38:54;;;;;;;16.00;8.85;;;;;;;9.62;24.78;103163.03;5352797;32;35159;-78
2022/03/20 07:41:57;;;;;;;15.75;8.88;;;;;;;9.66;24.14;103163.06;5377589;32;35193;-84
2022/03/20 07:44:59;;;;;;;14.57;8.68;;;;;;;9.46;24.75;103167.22;5318403;32;44770;-85
2022/03/20 07:48:02;;;;;;;14.57;8.38;;;;;;;11.22;22.09;103149.94;5366064;32;34811;-71
2022/03/20 07:51:05;;;;;;;17.48;8.55;;;;;;;10.85;22.93;103161.22;5368136;32;34361;-84
2022/03/20 07:54:08;;;;;;;;;;;;;;;9.67;24.12;103163.94;5362681;32;34268;-77
2022/03/20 07:57:10;;;;;;;14.60;8.03;;;;;;;11.27;21.24;103151.69;5382876;32;34432;-86
2022/03/20 08:00:13;;;;;;;15.90;8.07;;;;;;;10.28;22.50;103169.69;5341556;32;34226;-84
2022/03/20 08:03:15;;;;;;;16.70;8.25;;;;;;;11.92;21.03;103153.53;5367872;32;34594;-70
2022/03/20 08:06:18;;;;;;;16.83;9.07;;;;;;;11.28;21.43;103156.09;5341111;32;36519;-84
2022/03/20 08:09:20;;;;;;;17.23;9.40;;;;;;;9.47;24.12;103169.03;5352034;32;35663;-84
2022/03/20 08:12:24;;;;;;;17.27;8.70;;;;;;;8.30;25.55;103165.78;5352112;32;34036;-85
2022/03/20 08:15:34;;;;;;;15.23;8.33;;;;;;;9.46;24.53;103154.09;5344060;32;43486;-71
2022/03/20 08:18:37;;;;;;;14.23;7.97;;;;;;;9.31;24.03;103154.84;5367023;32;34924;-78
2022/03/20 08:21:39;;;;;;;17.47;8.30;;;;;;;8.36;25.37;103168.53;5364281;32;35071;-71
2022/03/20 08:24:46;;;;;;;17.30;8.20;;;;;;;8.84;24.78;103165.69;5350597;32;34443;-86
2022/03/20 08:27:53;;;;;;;14.67;7.30;;;;;;;9.38;24.25;103153.16;5355722;32;37148;-85
2022/03/20 08:30:56;;;;;;;14.27;7.97;;;;;;;10.98;22.21;103143.72;5370095;32;34788;-70
2022/03/20 08:33:58;;;;;;;14.95;7.25;;;;;;;10.22;22.88;103165.22;5372165;32;44745;-69
2022/03/20 08:37:00;;;;;;;16.80;7.70;;;;;;;10.80;22.16;103152.41;5351937;32;35000;-70
2022/03/20 08:40:03;;;;;;;15.37;8.23;;;;;;;9.13;24.09;103154.63;5364962;32;35023;-85
2022/03/20 08:43:08;;;;;;;15.82;7.20;;;;;;;10.73;22.49;103149.75;5336729;32;34864;-84
2022/03/20 08:46:10;;;;;;;14.47;6.37;;;;;;;10.09;23.45;103154.63;5356993;32;34642;-71
2022/03/20 08:49:13;;;;;;;13.07;6.70;;;;;;;9.08;24.28;103154.63;5362960;32;36245;-85
2022/03/20 08:52:16;;;;;;;12.47;6.07;;;;;;;9.33;23.77;103154.84;5371790;32;34683;-69
2022/03/20 08:55:18;;;;;;;13.32;6.90;;;;;;;10.46;21.88;103142.63;5376428;32;34826;-87
2022/03/20 08:58:20;;;;;;;12.63;5.87;;;;;;;11.04;20.94;103148.13;5336618;32;35288;-70
2022/03/20 09:01:23;;;;;;;11.27;6.50;;;;;;;9.64;22.89;103150.78;5378893;32;34984;-70
2022/03/20 09:04:25;;;;;;;11.77;6.20;;;;;;;10.34;22.36;103138.19;5362606;32;33881;-86
2022/03/20 09:07:28;;;;;;;12.27;6.40;;;;;;;9.91;22.30;103148.34;5369145;32;46283;-85
2022/03/20 09:10:31;;;;;;;12.00;5.65;;;;;;;9.60;22.68;103143.75;5362187;32;34776;-85
2022/03/20 09:13:33;;;;;;;13.00;6.57;;;;;;;10.74;21.54;103139.25;5362454;32;34784;-70
2022/03/20 09:19:58;;;;;;;15.27;5.83;;;;;;;10.14;22.36;103140.66;5359631;32;44900;-83
2022/03/20 09:23:00;;;;;;;12.47;6.73;;;;;;;10.01;22.24;103139.69;5369467;32;35511;-84
2022/03/20 09:26:02;;;;;;;12.60;6.33;;;;;;;9.85;22.69;103142.19;5366619;32;35622;-70
2022/03/20 09:29:04;;;;;;;12.63;7.13;;;;;;;9.01;23.75;103118.66;5372233;32;34098;-78
2022/03/20 09:32:07;;;;;;;13.30;6.80;;;;;;;10.72;22.03;103112.06;5358684;32;35373;-70
2022/03/20 09:35:11;;;;;;;15.17;8.53;;;;;;;11.37;21.22;103119.22;5354931;32;34820;-84
2022/03/20 09:38:13;;;;;;;14.03;6.93;;;;;;;12.60;19.96;103112.03;5367905;32;34080;-83
2022/03/20 09:41:16;;;;;;;15.50;6.60;;;;;;;13.61;18.44;103113.19;5355388;32;35348;-85
2022/03/20 09:44:22;;;;;;;13.60;6.93;;;;;;;12.43;19.66;103114.75;5346451;32;34845;-85
2022/03/20 09:47:26;;;;;;;13.37;7.07;;;;;;;13.15;19.28;103117.03;5355844;32;35095;-71
2022/03/20 09:50:28;;;;;;;16.83;6.90;;;;;;;15.70;16.64;103106.09;5374311;32;45753;-84
2022/03/20 09:53:31;;;;;;;12.50;6.75;;;;;;;15.30;17.31;103113.81;5372561;32;34755;-70
2022/03/20 09:56:33;;;;;;;12.75;6.70;;;;;;;15.97;16.23;103110.06;5368255;32;35187;-84
2022/03/20 09:59:39;;;;;;;12.70;6.95;;;;;;;15.47;16.71;103102.94;5358432;32;34556;-85
2022/03/20 10:02:41;;;;;;;12.03;7.23;;;;;;;15.82;16.45;103110.31;5348641;32;33941;-75
2022/03/20 10:05:44;;;;;;;13.70;7.30;;;;;;;13.69;18.15;103108.69;5383529;32;35007;-86
2022/03/20 10:08:55;;;;;;;13.77;7.57;;;;;;;14.96;16.84;103094.91;5362303;32;34148;-71
2022/03/20 10:11:58;;;;;;;14.83;7.77;;;;;;;16.72;15.45;103084.66;5366875;32;44593;-85
2022/03/20 10:15:01;;;;;;;14.13;7.93;;;;;;;13.23;18.50;103095.88;5365198;32;34733;-86
2022/03/20 10:18:21;;;;;;;13.52;7.53;;;;;;;14.96;17.45;103094.03;5340396;32;33858;-78
2022/03/20 10:21:44;;;;;;;12.17;7.03;;;;;;;16.99;15.29;103084.94;5370099;32;35763;-84
2022/03/20 10:24:51;;;;;;;11.82;6.90;;;;;;;18.09;14.20;103091.00;5362087;32;34703;-70
2022/03/20 10:27:57;;;;;;;13.53;7.67;;;;;;;17.08;14.86;103091.84;5351721;32;34483;-78
2022/03/20 10:31:01;;;;;;;12.70;7.37;;;;;;;16.12;15.68;103085.00;5378861;32;44638;-70
2022/03/20 10:34:09;;;;;;;12.20;6.83;;;;;;;17.20;14.53;103081.78;5359459;32;35812;-71
2022/03/20 10:37:11;;;;;;;12.13;7.70;;;;;;;15.65;16.35;103070.00;5368261;32;32452;-84
2022/03/20 10:40:19;;;;;;;13.80;7.33;;;;;;;16.63;15.23;103068.91;5362860;32;34958;-85
2022/03/20 10:43:21;;;;;;;12.60;7.53;;;;;;;17.29;14.98;103068.28;5342677;32;33199;-71
2022/03/20 10:46:28;;;;;;;12.85;7.15;;;;;;;16.17;15.75;103064.56;5355884;32;35231;-71
2022/03/20 10:49:32;;;;;;;13.02;7.22;;;;;;;16.00;16.27;103058.72;5365899;32;43971;-86
2022/03/20 10:52:36;;;;;;;13.47;6.93;;;;;;;16.65;15.22;103061.78;5382283;32;35163;-85
2022/03/20 10:55:38;;;;;;;12.32;7.03;;;;;;;18.36;13.87;103052.09;5350180;32;307456;-70
2022/03/20 10:58:40;;;;;;;15.07;7.28;;;;;;;14.09;17.16;103062.47;5374892;32;35144;-70
2022/03/20 11:01:47;;;;;;;15.80;7.60;;;;;;;14.51;17.28;103054.06;5366482;32;34154;-71
2022/03/20 11:04:50;;;;;;;11.65;7.37;;;;;;;15.83;15.80;103052.84;5359337;32;35202;-70
2022/03/20 11:07:52;;;;;;;12.77;7.22;;;;;;;14.94;16.18;103051.69;5379666;32;34632;-86
2022/03/20 11:10:55;;;;;;;14.50;7.57;;;;;;;12.91;18.45;103059.97;5340272;32;32780;-85
2022/03/20 11:13:58;;;;;;;12.63;7.40;;;;;;;16.91;14.85;103044.41;5363481;32;34031;-84
2022/03/20 11:17:06;;;;;;;12.67;7.30;;;;;;;13.99;17.27;103038.78;5363836;32;34049;-72
2022/03/20 11:20:11;;;;;;;13.03;7.40;;;;;;;14.64;17.09;103039.78;5379168;32;32743;-85
2022/03/20 11:23:14;;;;;;;12.97;7.13;;;;;;;15.26;16.57;103026.44;5353957;32;33860;-71
2022/03/20 11:26:16;;;;;;;;;;;;;;;14.27;17.40;103023.47;5355970;32;34077;-85
2022/03/20 11:29:21;;;;;;;12.77;6.60;;;;;;;15.86;15.71;103018.34;5380219;32;35913;-71
2022/03/20 11:32:24;;;;;;;11.93;6.47;;;;;;;17.06;14.37;103013.00;5367874;32;35370;-85
2022/03/20 11:35:30;;;;;;;11.93;6.85;;;;;;;18.17;13.63;103000.31;5368239;32;34372;-84
2022/03/20 11:38:35;;;;;;;12.90;7.33;;;;;;;16.44;14.88;103004.72;5361700;32;44559;-85
2022/03/20 11:41:38;;;;;;;12.27;6.50;;;;;;;15.08;16.03;102998.50;5371876;32;34466;-80
2022/03/20 11:44:51;;;;;;;11.18;5.78;;;;;;;13.62;16.89;103003.94;5351441;32;35277;-85
2022/03/20 11:48:12;;;;;;;11.43;6.20;;;;;;;15.94;15.33;102987.22;5359703;32;34643;-79
2022/03/20 11:51:15;;;;;;;9.83;5.90;;;;;;;15.88;14.76;102995.31;5370422;32;34055;-85
2022/03/20 11:54:17;;;;;;;;;;;;;;;14.99;15.37;102983.63;5352548;32;34565;-71
2022/03/20 11:57:29;;;;;;;10.90;6.07;;;;;;;14.90;15.80;102976.72;5378210;32;34446;-71
2022/03/20 12:00:34;;;;;;;13.17;6.17;;;;;;;14.81;15.92;102968.03;5369235;32;44830;-70
2022/03/20 12:04:12;;;;;;;11.93;5.97;;;;;;;14.15;16.76;102976.00;5349797;32;34676;-85
2022/03/20 12:07:29;;;;;;;12.87;6.20;;;;;;;12.90;17.65;102978.16;5377708;32;32849;-72
2022/03/20 12:10:53;;;;;;;10.67;5.17;;;;;;;14.24;16.01;102968.84;5351948;32;45018;-70
2022/03/20 12:14:24;;;;;;;9.97;4.97;;;;;;;13.64;16.17;102973.09;5357575;32;34047;-70
2022/03/20 12:18:06;;;;;;;9.77;5.20;;;;;;;13.51;15.78;102989.06;5375473;32;36338;-84
2022/03/20 12:21:09;;;;;;;9.23;4.90;;;;;;;13.94;15.76;102958.66;5368862;32;34987;-85
2022/03/20 12:24:42;;;;;;;9.43;4.90;;;;;;;14.51;15.39;102961.44;5358866;32;34582;-85
2022/03/20 12:27:47;;;;;;;15.07;5.33;;;;;;;14.91;14.74;102964.34;5384528;32;34149;-79
2022/03/20 12:30:50;;;;;;;;;;;;;;;15.32;14.08;102962.75;5366679;32;33103;-85
2022/03/20 12:34:19;;;;;;;10.70;5.73;;;;;;;13.49;16.33;102951.22;5381329;32;35303;-86
2022/03/20 12:37:27;;;;;;;12.40;5.77;;;;;;;14.79;15.66;102953.94;5355433;32;34235;-85
2022/03/20 12:40:31;;;;;;;10.57;5.60;;;;;;;14.23;16.07;102939.75;5365505;32;46209;-70
2022/03/20 12:44:00;;;;;;;11.20;5.63;;;;;;;14.21;15.93;102946.84;5342272;32;34736;-86
2022/03/20 12:47:03;;;;;;;10.40;5.17;;;;;;;15.53;14.99;102935.88;5351682;32;44452;-84
2022/03/20 12:50:07;;;;;;;10.93;5.78;;;;;;;13.14;16.75;102945.41;5377293;32;34773;-71
2022/03/20 12:53:14;;;;;;;9.23;5.20;;;;;;;14.38;15.31;102936.91;5365604;32;35120;-71
2022/03/20 12:56:33;;;;;;;10.23;5.50;;;;;;;12.96;16.74;102946.44;5354460;32;35612;-86
2022/03/20 12:59:36;;;;;;;10.93;5.57;;;;;;;13.49;16.45;102932.72;5361268;32;43321;-77
2022/03/20 13:03:03;;;;;;;11.00;5.32;;;;;;;14.13;16.14;102928.44;5352958;32;34752;-85
2022/03/20 13:06:06;;;;;;;12.60;6.33;;;;;;;15.41;14.90;102922.84;5383476;32;44420;-70
2022/03/20 13:09:15;;;;;;;14.53;6.30;;;;;;;16.41;14.30;102916.31;5365145;32;35517;-85
2022/03/20 13:12:17;;;;;;;11.03;5.83;;;;;;;16.40;14.05;102922.53;5356889;32;33891;-84
2022/03/20 13:15:34;;;;;;;12.82;5.97;;;;;;;17.84;13.25;102899.28;5368423;32;34113;-84
2022/03/20 13:18:36;;;;;;;11.63;5.87;;;;;;;18.23;12.32;102900.78;5349237;32;46653;-72
2022/03/20 13:21:49;;;;;;;11.85;5.50;;;;;;;16.21;13.63;102903.50;5357591;32;34635;-85
2022/03/20 13:24:52;;;;;;;10.35;5.55;;;;;;;16.43;13.33;102899.47;5355025;32;34941;-71
2022/03/20 13:27:54;;;;;;;12.53;5.73;;;;;;;16.61;13.72;102899.91;5343912;32;34619;-85
2022/03/20 13:31:01;;;;;;;9.40;4.55;;;;;;;15.79;13.45;102897.37;5377640;32;33256;-85
2022/03/20 13:34:05;;;;;;;10.00;5.07;;;;;;;20.26;9.82;102881.06;5352823;32;44519;-87
2022/03/20 13:37:10;;;;;;;9.20;5.12;;;;;;;18.59;10.72;102877.41;5382013;32;34335;-85
2022/03/20 13:40:13;;;;;;;8.45;4.82;;;;;;;22.57;8.78;102884.03;5365214;32;34411;-71
2022/03/20 13:43:22;;;;;;;10.05;5.30;;;;;;;22.54;8.71;102872.59;5362152;32;34001;-78
2022/03/20 13:46:29;;;;;;;10.53;6.20;;;;;;;16.49;13.02;102890.50;5353031;32;35060;-84
2022/03/20 13:49:32;;;;;;;11.87;5.83;;;;;;;16.67;13.00;102884.69;5356086;32;45699;-85
2022/03/20 13:52:35;;;;;;;;;;;;;;;12.19;17.09;102890.72;5357711;32;36607;-86
2022/03/20 13:55:40;;;;;;;10.37;5.33;;;;;;;13.91;15.62;102877.63;5359944;32;33689;-86
2022/03/20 13:59:06;;;;;;;9.53;5.13;;;;;;;13.87;15.69;102891.75;5364029;32;34009;-78
2022/03/20 14:02:08;;;;;;;11.57;5.37;;;;;;;14.29;15.12;102884.09;5359511;32;35031;-81
2022/03/20 14:05:21;;;;;;;12.00;5.30;;;;;;;13.27;15.83;102881.03;5367621;32;33504;-71
2022/03/20 14:08:24;;;;;;;10.82;5.70;;;;;;;12.71;16.04;102885.06;5364855;32;34887;-70
2022/03/20 14:11:35;;;;;;;11.03;5.57;;;;;;;13.24;15.87;102875.78;5355421;32;34074;-83
2022/03/20 14:14:46;;;;;;;11.00;5.23;;;;;;;12.09;17.13;102876.69;5367475;32;35079;-70
2022/03/20 14:17:50;;;;;;;9.37;5.57;;;;;;;12.48;16.52;102874.66;5365014;32;35893;-70
2022/03/20 14:21:11;;;;;;;9.70;5.00;;;;;;;12.20;16.99;102874.00;5371006;32;34512;-70
2022/03/20 14:24:14;;;;;;;11.13;5.03;;;;;;;13.15;15.59;102870.56;5383284;32;34748;-72
2022/03/20 14:27:25;;;;;;;10.57;5.40;;;;;;;12.38;16.10;102867.72;5352631;32;34989;-85
2022/03/20 14:40:48;;;;;;;10.47;4.83;;;;;;;11.36;16.15;102855.91;5378478;32;36495;-71
2022/03/20 14:44:14;;;;;;;9.10;4.57;;;;;;;11.26;16.65;102865.59;5341346;32;36205;-71
2022/03/20 14:47:18;;;;;;;9.17;4.40;;;;;;;12.52;14.89;102857.94;5358771;32;33824;-70
2022/03/20 14:50:21;;;;;;;10.20;4.60;;;;;;;12.57;15.09;102842.97;5377081;32;35001;-85